createdAt,value
2018-05-10T00:00:51.817Z,100701.05
2018-05-10T00:03:19.939Z,100708.48
2018-05-10T00:05:48.039Z,100710.43
2018-05-10T00:18:01.135Z,100710.63
2018-05-10T00:20:30.051Z,100718.44
2018-05-10T00:22:58.153Z,100712.55
2018-05-10T00:25:26.267Z,100707.77
2018-05-10T00:27:55.377Z,100704.56
2018-05-10T00:30:23.519Z,100705.98
2018-05-10T00:32:51.631Z,100707.58
2018-05-10T00:35:19.764Z,100712.69
2018-05-10T00:37:47.866Z,100712.05
2018-05-10T00:40:15.971Z,100719.50
2018-05-10T00:42:44.139Z,100715.83
2018-05-10T00:45:13.163Z,100718.39
2018-05-10T00:47:41.279Z,100720.19
2018-05-10T00:50:09.848Z,100720.19
2018-05-10T00:52:37.907Z,100711.41
2018-05-10T00:55:06.028Z,100714.80
2018-05-10T00:57:39.713Z,100712.59
2018-05-10T01:00:13.335Z,100711.81
2018-05-10T01:02:41.438Z,100721.48
2018-05-10T01:05:09.832Z,100727.45
2018-05-10T01:07:37.924Z,100729.35
2018-05-10T01:10:06.039Z,100718.00
2018-05-10T01:12:34.990Z,100720.80
2018-05-10T01:15:03.104Z,100716.20
2018-05-10T01:17:31.218Z,100716.20
2018-05-10T01:19:59.310Z,100712.88
2018-05-10T01:22:27.411Z,100714.23
2018-05-10T01:24:55.490Z,100704.84
2018-05-10T01:27:23.582Z,100703.72
2018-05-10T01:29:51.676Z,100715.70
2018-05-10T01:32:19.797Z,100709.67
2018-05-10T01:35:00.580Z,100711.14
2018-05-10T01:37:28.670Z,100710.91
2018-05-10T01:39:56.802Z,100708.55
2018-05-10T01:42:24.904Z,100711.30
2018-05-10T01:44:53.030Z,100708.01
2018-05-10T01:47:21.139Z,100701.98
2018-05-10T01:49:49.280Z,100706.22
2018-05-10T01:52:17.373Z,100707.58
2018-05-10T01:54:45.498Z,100717.45
2018-05-10T01:57:13.585Z,100718.73
2018-05-10T01:59:41.672Z,100712.05
2018-05-10T02:02:09.818Z,100720.61
2018-05-10T02:04:48.596Z,100711.64
2018-05-10T02:07:16.677Z,100713.27
2018-05-10T02:09:44.788Z,100719.97
2018-05-10T02:12:12.908Z,100722.89
2018-05-10T02:14:41.075Z,100733.02
2018-05-10T02:17:09.128Z,100737.86
2018-05-10T02:19:37.235Z,100731.05
2018-05-10T02:22:05.712Z,100729.42
2018-05-10T02:24:33.819Z,100732.22
2018-05-10T02:27:01.900Z,100728.33
2018-05-10T02:29:31.789Z,100727.08
2018-05-10T02:31:59.888Z,100727.67
2018-05-10T02:34:28.005Z,100728.42
2018-05-10T02:37:01.685Z,100724.74
2018-05-10T02:39:35.194Z,100727.92
2018-05-10T02:42:03.960Z,100725.81
2018-05-10T02:44:32.070Z,100729.57
2018-05-10T02:47:00.173Z,100729.79
2018-05-10T02:49:28.278Z,100723.45
2018-05-10T02:51:57.132Z,100721.52
2018-05-10T02:54:25.244Z,100722.04
2018-05-10T02:56:53.738Z,100720.30
2018-05-10T03:12:22.701Z,100711.56
2018-05-10T03:14:50.810Z,100709.36
2018-05-10T03:17:18.914Z,100701.30
2018-05-10T03:19:46.999Z,100710.05
2018-05-10T03:22:15.200Z,100715.55
2018-05-10T03:24:43.344Z,100720.94
2018-05-10T03:27:11.424Z,100714.09
2018-05-10T03:29:39.528Z,100715.39
2018-05-10T03:32:07.624Z,100709.81
2018-05-10T03:34:35.768Z,100716.96
2018-05-10T03:37:04.032Z,100712.59
2018-05-10T03:39:37.826Z,100710.53
2018-05-10T03:42:05.919Z,100710.80
2018-05-10T03:44:34.610Z,100703.64
2018-05-10T03:47:02.740Z,100711.83
2018-05-10T03:49:30.839Z,100712.73
2018-05-10T03:51:58.945Z,100713.88
2018-05-10T03:54:27.056Z,100716.98
2018-05-10T03:56:55.152Z,100711.36
2018-05-10T03:59:23.249Z,100713.30
2018-05-10T04:01:52.091Z,100707.48
2018-05-10T04:04:44.244Z,100705.78
2018-05-10T04:07:24.132Z,100705.65
2018-05-10T04:10:04.094Z,100705.35
2018-05-10T04:12:32.684Z,100717.55
2018-05-10T04:15:00.819Z,100717.52
2018-05-10T04:17:28.890Z,100716.25
2018-05-10T04:19:57.360Z,100712.23
2018-05-10T04:22:25.788Z,100714.27
2018-05-10T04:24:58.842Z,100720.24
2018-05-10T04:27:27.796Z,100722.42
2018-05-10T04:29:56.546Z,100728.03
2018-05-10T04:32:24.692Z,100738.05
2018-05-10T04:34:58.230Z,100739.95
2018-05-10T04:37:26.345Z,100738.02
2018-05-10T04:39:54.435Z,100741.99
2018-05-10T04:42:23.475Z,100744.20
2018-05-10T04:44:51.591Z,100751.70
2018-05-10T04:47:20.599Z,100756.94
2018-05-10T04:49:48.687Z,100755.65
2018-05-10T04:52:16.792Z,100761.00
2018-05-10T04:54:44.968Z,100762.03
2018-05-10T04:57:13.071Z,100766.16
2018-05-10T04:59:41.190Z,100759.16
2018-05-10T05:02:09.323Z,100755.97
2018-05-10T05:04:37.439Z,100760.07
2018-05-10T05:07:06.466Z,100765.90
2018-05-10T05:09:35.330Z,100763.02
2018-05-10T05:12:03.541Z,100762.39
2018-05-10T05:14:31.532Z,100762.50
2018-05-10T05:16:59.619Z,100763.30
2018-05-10T05:32:28.610Z,100763.77
2018-05-10T05:34:56.740Z,100759.52
2018-05-10T05:37:25.196Z,100768.95
2018-05-10T05:39:53.279Z,100776.42
2018-05-10T05:42:21.389Z,100775.86
2018-05-10T05:44:49.486Z,100773.75
2018-05-10T05:47:17.591Z,100763.60
2018-05-10T05:49:45.752Z,100773.17
2018-05-10T05:52:13.846Z,100761.59
2018-05-10T05:54:42.246Z,100760.18
2018-05-10T05:57:10.346Z,100762.81
2018-05-10T05:59:38.445Z,100770.77
2018-05-10T06:02:07.223Z,100769.23
2018-05-10T06:04:35.340Z,100772.78
2018-05-10T06:07:04.289Z,100772.67
2018-05-10T06:09:32.410Z,100776.28
2018-05-10T06:12:00.518Z,100777.89
2018-05-10T06:14:28.608Z,100783.08
2018-05-10T06:16:56.718Z,100789.45
2018-05-10T06:19:25.456Z,100797.31
2018-05-10T06:21:53.550Z,100799.38
2018-05-10T06:24:22.396Z,100795.03
2018-05-10T06:26:50.530Z,100792.51
2018-05-10T06:29:18.635Z,100801.62
2018-05-10T06:31:46.728Z,100810.34
2018-05-10T06:34:14.861Z,100817.41
2018-05-10T06:36:42.952Z,100817.02
2018-05-10T06:39:11.752Z,100818.00
2018-05-10T06:41:39.859Z,100825.55
2018-05-10T06:44:09.212Z,100827.39
2018-05-10T06:46:37.345Z,100824.89
2018-05-10T06:49:05.434Z,100825.92
2018-05-10T06:51:33.563Z,100819.91
2018-05-10T06:54:01.668Z,100831.47
2018-05-10T06:56:29.767Z,100836.19
2018-05-10T06:58:57.883Z,100845.50
2018-05-10T07:01:26.243Z,100842.19
2018-05-10T07:03:55.131Z,100844.33
2018-05-10T07:06:23.227Z,100839.77
2018-05-10T07:08:51.355Z,100834.47
2018-05-10T07:11:19.472Z,100837.50
2018-05-10T07:13:47.988Z,100835.98
2018-05-10T07:16:16.107Z,100834.77
2018-05-10T07:18:44.201Z,100839.72
2018-05-10T07:21:17.971Z,100848.58
2018-05-10T07:23:46.152Z,100843.29
2018-05-10T07:26:14.225Z,100849.55
2018-05-10T07:28:42.349Z,100847.61
2018-05-10T07:31:10.437Z,100844.47
2018-05-10T07:33:38.528Z,100851.34
2018-05-10T07:36:06.675Z,100857.23
2018-05-10T07:38:34.755Z,100858.89
2018-05-10T07:41:02.860Z,100856.72
2018-05-10T07:43:30.980Z,100861.28
2018-05-10T07:45:59.088Z,100865.40
2018-05-10T07:48:27.207Z,100869.56
2018-05-10T07:50:55.307Z,100872.62
2018-05-10T07:53:23.424Z,100873.73
2018-05-10T07:55:51.553Z,100874.77
2018-05-10T07:58:25.205Z,100887.31
2018-05-10T08:00:56.029Z,100884.78
2018-05-10T08:03:24.163Z,100887.64
2018-05-10T08:05:52.280Z,100891.95
2018-05-10T08:08:20.366Z,100898.72
2018-05-10T08:10:48.705Z,100900.56
2018-05-10T08:13:16.786Z,100907.79
2018-05-10T08:15:44.940Z,100915.34
2018-05-10T08:18:13.070Z,100920.53
2018-05-10T08:20:41.167Z,100924.87
2018-05-10T08:23:09.275Z,100924.25
2018-05-10T08:25:37.370Z,100924.41
2018-05-10T08:28:05.473Z,100938.27
2018-05-10T08:30:33.584Z,100941.88
2018-05-10T08:33:01.684Z,100941.81
2018-05-10T08:35:29.774Z,100942.09
2018-05-10T08:37:57.907Z,100950.34
2018-05-10T08:40:25.997Z,100960.50
2018-05-10T08:42:54.099Z,100966.44
2018-05-10T08:45:22.199Z,100961.84
2018-05-10T08:47:50.364Z,100975.69
2018-05-10T08:50:18.467Z,100975.39
2018-05-10T08:52:46.555Z,100998.59
2018-05-10T08:55:14.669Z,100992.41
2018-05-10T09:07:27.872Z,101041.44
2018-05-10T09:09:55.889Z,101031.42
2018-05-10T09:12:24.389Z,101041.34
2018-05-10T09:14:52.541Z,101045.22
2018-05-10T09:17:20.646Z,101049.78
2018-05-10T09:32:48.767Z,101061.13
2018-05-10T09:35:16.851Z,101066.55
2018-05-10T09:37:44.969Z,101076.30
2018-05-10T09:40:13.140Z,101077.28
2018-05-10T09:42:41.240Z,101081.58
2018-05-10T09:45:09.327Z,101077.03
2018-05-10T09:47:37.452Z,101105.11
2018-05-10T09:50:05.545Z,101105.31
2018-05-10T09:52:33.722Z,101112.06
2018-05-10T09:55:01.747Z,101115.39
2018-05-10T09:57:29.858Z,101127.27
2018-05-10T09:59:57.976Z,101115.84
2018-05-10T10:02:26.396Z,101123.22
2018-05-10T10:04:54.487Z,101128.69
2018-05-10T10:07:23.593Z,101129.28
2018-05-10T10:09:51.688Z,101123.02
2018-05-10T10:12:20.628Z,101130.97
2018-05-10T10:14:48.744Z,101131.11
2018-05-10T10:17:16.827Z,101143.84
2018-05-10T10:19:44.939Z,101139.45
2018-05-10T10:22:13.082Z,101138.09
2018-05-10T10:24:41.184Z,101151.89
2018-05-10T10:27:09.287Z,101152.09
2018-05-10T10:29:37.411Z,101163.01
2018-05-10T10:32:05.862Z,101157.14
2018-05-10T10:34:33.978Z,101168.05
2018-05-10T10:37:02.028Z,101167.58
2018-05-10T10:39:30.108Z,101175.91
2018-05-10T10:41:58.188Z,101170.39
2018-05-10T10:44:27.187Z,101182.92
2018-05-10T10:46:55.319Z,101201.09
2018-05-10T10:49:23.408Z,101194.67
2018-05-10T10:51:51.580Z,101211.22
2018-05-10T10:54:19.692Z,101210.94
2018-05-10T10:56:47.778Z,101207.12
2018-05-10T10:59:21.341Z,101214.73
2018-05-10T11:01:49.553Z,101215.06
2018-05-10T11:04:17.621Z,101215.88
2018-05-10T11:06:46.380Z,101225.10
2018-05-10T11:09:14.659Z,101222.52
2018-05-10T11:11:43.521Z,101238.34
2018-05-10T11:14:11.999Z,101243.20
2018-05-10T11:16:40.246Z,101241.34
2018-05-10T11:19:08.321Z,101250.09
2018-05-10T11:21:36.422Z,101247.39
2018-05-10T11:37:04.548Z,101278.05
2018-05-10T11:39:38.240Z,101280.27
2018-05-10T11:42:06.354Z,101283.67
2018-05-10T11:44:35.490Z,101291.79
2018-05-10T11:47:03.566Z,101298.84
2018-05-10T11:49:31.681Z,101296.66
2018-05-10T11:51:59.807Z,101308.43
2018-05-10T11:54:27.919Z,101317.63
2018-05-10T11:56:56.588Z,101318.48
2018-05-10T11:59:24.979Z,101321.06
2018-05-10T12:01:53.569Z,101320.41
2018-05-10T12:04:21.713Z,101317.66
2018-05-10T12:06:49.791Z,101320.66
2018-05-10T12:09:17.927Z,101332.61
2018-05-10T12:11:46.042Z,101331.32
2018-05-10T12:14:14.309Z,101338.31
2018-05-10T12:16:48.854Z,101339.38
2018-05-10T12:19:17.003Z,101341.67
2018-05-10T12:21:46.001Z,101356.23
2018-05-10T12:24:14.272Z,101360.28
2018-05-10T12:39:42.393Z,101389.16
2018-05-10T12:42:10.474Z,101386.91
2018-05-10T12:44:38.566Z,101395.09
2018-05-10T12:47:06.701Z,101396.71
2018-05-10T12:49:34.794Z,101402.09
2018-05-10T12:52:02.870Z,101406.41
2018-05-10T12:54:30.981Z,101405.84
2018-05-10T12:56:59.089Z,101403.53
2018-05-10T12:59:27.196Z,101420.66
2018-05-10T13:01:55.360Z,101415.57
2018-05-10T13:04:23.710Z,101410.20
2018-05-10T13:06:51.845Z,101428.62
2018-05-10T13:09:19.918Z,101439.75
2018-05-10T13:11:48.011Z,101442.98
2018-05-10T13:14:16.130Z,101439.42
2018-05-10T13:16:45.000Z,101447.04
2018-05-10T13:19:13.078Z,101455.62
2018-05-10T13:21:41.921Z,101458.23
2018-05-10T13:24:11.178Z,101473.61
2018-05-10T13:26:39.260Z,101481.42
2018-05-10T13:29:08.232Z,101487.07
2018-05-10T13:44:36.347Z,101496.16
2018-05-10T13:47:04.582Z,101513.23
2018-05-10T13:49:33.267Z,101512.55
2018-05-10T13:52:02.376Z,101520.19
2018-05-10T13:54:30.503Z,101526.38
2018-05-10T13:56:59.326Z,101529.47
2018-05-10T13:59:27.421Z,101535.91
2018-05-10T14:01:55.544Z,101533.67
2018-05-10T14:04:24.848Z,101548.16
2018-05-10T14:06:52.978Z,101543.66
2018-05-10T14:09:21.056Z,101552.73
2018-05-10T14:11:49.170Z,101552.05
2018-05-10T14:14:17.299Z,101556.09
2018-05-10T14:16:45.400Z,101549.09
2018-05-10T14:19:13.489Z,101554.07
2018-05-10T14:21:41.603Z,101568.77
2018-05-10T14:24:09.742Z,101570.61
2018-05-10T14:26:37.828Z,101583.83
2018-05-10T14:29:05.940Z,101567.29
2018-05-10T14:31:39.572Z,101575.34
2018-05-10T14:34:07.720Z,101576.63
2018-05-10T14:36:36.506Z,101571.87
2018-05-10T14:39:06.127Z,101584.27
2018-05-10T14:41:34.226Z,101588.27
2018-05-10T14:44:02.367Z,101588.48
2018-05-10T14:46:30.468Z,101599.39
2018-05-10T14:48:58.569Z,101612.20
2018-05-10T14:51:26.716Z,101596.09
2018-05-10T14:53:54.815Z,101604.41
2018-05-10T14:56:22.924Z,101609.02
2018-05-10T14:58:51.072Z,101616.30
2018-05-10T15:01:19.903Z,101628.33
2018-05-10T15:03:48.000Z,101630.45
2018-05-10T15:06:16.086Z,101637.36
2018-05-10T15:08:44.237Z,101633.58
2018-05-10T15:11:13.175Z,101637.80
2018-05-10T15:13:46.865Z,101646.19
2018-05-10T15:16:15.013Z,101649.85
2018-05-10T15:18:43.106Z,101648.39
2018-05-10T15:21:11.194Z,101639.38
2018-05-10T15:23:39.354Z,101641.64
2018-05-10T15:26:07.404Z,101650.73
2018-05-10T15:28:35.494Z,101658.23
2018-05-10T15:31:03.646Z,101649.57
2018-05-10T15:33:31.757Z,101655.93
2018-05-10T15:35:59.860Z,101661.28
2018-05-10T15:38:28.932Z,101663.80
2018-05-10T15:40:57.023Z,101664.78
2018-05-10T15:43:25.137Z,101669.20
2018-05-10T15:45:53.233Z,101668.98
2018-05-10T15:48:21.328Z,101658.77
2018-05-10T15:50:49.893Z,101675.17
2018-05-10T15:53:23.611Z,101686.14
2018-05-10T15:55:53.458Z,101693.67
2018-05-10T15:58:21.538Z,101703.33
2018-05-10T16:00:49.717Z,101704.38
2018-05-10T16:03:17.817Z,101701.12
2018-05-10T16:05:45.927Z,101708.68
2018-05-10T16:08:14.023Z,101712.00
2018-05-10T16:10:42.115Z,101715.33
2018-05-10T16:13:10.241Z,101714.80
2018-05-10T16:15:38.387Z,101714.52
2018-05-10T16:18:07.392Z,101727.36
2018-05-10T16:20:35.878Z,101727.41
2018-05-10T16:23:04.313Z,101731.83
2018-05-10T16:25:32.409Z,101733.89
2018-05-10T16:28:01.363Z,101734.09
2018-05-10T16:30:35.006Z,101733.09
2018-05-10T16:33:03.107Z,101734.95
2018-05-10T16:35:31.207Z,101742.11
2018-05-10T16:38:00.039Z,101745.37
2018-05-10T16:40:28.157Z,101751.34
2018-05-10T16:55:56.282Z,101775.43
2018-05-10T16:58:24.375Z,101773.08
2018-05-10T17:00:52.903Z,101781.20
2018-05-10T17:03:21.031Z,101780.16
2018-05-10T17:05:49.749Z,101791.33
2018-05-10T17:08:17.964Z,101790.08
2018-05-10T17:10:46.048Z,101794.03
2018-05-10T17:13:14.780Z,101795.49
2018-05-10T17:15:42.895Z,101809.64
2018-05-10T17:18:10.972Z,101807.41
2018-05-10T17:20:39.088Z,101810.18
2018-05-10T17:23:07.186Z,101808.06
2018-05-10T17:25:35.368Z,101810.05
2018-05-10T17:28:03.474Z,101807.41
2018-05-10T17:30:31.580Z,101803.01
2018-05-10T17:33:00.461Z,101803.77
2018-05-10T17:35:28.532Z,101804.30
2018-05-10T17:37:56.807Z,101810.20
2018-05-10T17:40:25.698Z,101821.81
2018-05-10T17:42:53.807Z,101834.59
2018-05-10T17:45:21.911Z,101844.77
2018-05-10T17:47:50.607Z,101844.77
2018-05-10T17:50:18.710Z,101844.58
2018-05-10T17:52:46.828Z,101851.48
2018-05-10T17:55:14.919Z,101859.81
2018-05-10T17:57:43.012Z,101861.13
2018-05-10T18:00:11.119Z,101863.05
2018-05-10T18:02:39.228Z,101869.30
2018-05-10T18:05:07.324Z,101865.48
2018-05-10T18:07:35.423Z,101867.39
2018-05-10T18:10:03.541Z,101876.38
2018-05-10T18:12:32.464Z,101881.88
2018-05-10T18:15:00.583Z,101887.56
2018-05-10T18:17:28.697Z,101885.27
2018-05-10T18:19:56.779Z,101887.48
2018-05-10T18:22:25.958Z,101889.61
2018-05-10T18:24:54.043Z,101890.83
2018-05-10T18:27:22.150Z,101893.23
2018-05-10T18:29:50.271Z,101892.33
2018-05-10T18:32:18.389Z,101901.50
2018-05-10T18:47:51.506Z,101919.13
2018-05-10T18:50:19.579Z,101929.14
2018-05-10T18:52:48.017Z,101931.81
2018-05-10T18:55:21.062Z,101932.13
2018-05-10T18:57:49.233Z,101932.00
2018-05-10T19:00:17.328Z,101935.58
2018-05-10T19:02:46.146Z,101935.98
2018-05-10T19:05:14.308Z,101939.98
2018-05-10T19:07:42.409Z,101943.77
2018-05-10T19:10:10.519Z,101949.71
2018-05-10T19:12:38.666Z,101947.72
2018-05-10T19:15:06.774Z,101945.48
2018-05-10T19:17:35.256Z,101947.55
2018-05-10T19:20:03.388Z,101949.88
2018-05-10T19:22:31.484Z,101958.39
2018-05-10T19:24:59.578Z,101960.19
2018-05-10T19:27:33.343Z,101965.75
2018-05-10T19:30:07.031Z,101961.23
2018-05-10T19:32:35.221Z,101974.09
2018-05-10T19:35:03.312Z,101979.25
2018-05-10T19:37:31.477Z,101980.47
2018-05-10T19:39:59.593Z,101979.88
2018-05-10T19:42:27.676Z,101985.13
2018-05-10T19:44:55.783Z,101984.40
2018-05-10T19:47:23.867Z,101988.69
2018-05-10T19:49:52.431Z,101988.06
2018-05-10T19:52:20.573Z,101997.20
2018-05-10T19:54:48.974Z,101997.88
2018-05-10T19:57:17.090Z,101999.90
2018-05-10T19:59:45.204Z,102006.82
2018-05-10T20:15:13.313Z,102011.66
2018-05-10T20:17:41.407Z,102016.80
2018-05-10T20:20:09.527Z,102023.61
2018-05-10T20:22:37.635Z,102026.80
2018-05-10T20:25:05.809Z,102029.31
2018-05-10T20:27:33.910Z,102034.73
2018-05-10T20:30:02.023Z,102036.70
2018-05-10T20:32:30.218Z,102040.43
2018-05-10T20:34:58.215Z,102042.89
2018-05-10T20:37:31.950Z,102037.63
2018-05-10T20:40:00.080Z,102046.23
2018-05-10T20:42:28.182Z,102050.55
2018-05-10T20:44:56.311Z,102051.57
2018-05-10T20:47:24.404Z,102055.63
2018-05-10T20:49:52.483Z,102058.63
2018-05-10T20:52:20.795Z,102059.12
2018-05-10T20:54:48.907Z,102062.72
2018-05-10T20:57:17.949Z,102060.77
2018-05-10T20:59:46.093Z,102061.98
2018-05-10T21:02:14.231Z,102067.67
2018-05-10T21:04:42.331Z,102066.38
2018-05-10T21:07:10.996Z,102068.08
2018-05-10T21:09:39.967Z,102065.83
2018-05-10T21:12:08.053Z,102063.33
2018-05-10T21:14:36.154Z,102070.47
2018-05-10T21:17:04.235Z,102071.86
2018-05-10T21:19:32.387Z,102074.45
2018-05-10T21:22:00.495Z,102070.58
2018-05-10T21:24:29.141Z,102075.70
2018-05-10T21:26:58.057Z,102079.15
2018-05-10T21:29:26.212Z,102085.40
2018-05-10T21:31:54.584Z,102089.31
2018-05-10T21:34:22.991Z,102088.73
2018-05-10T21:36:51.113Z,102095.91
2018-05-10T21:39:19.217Z,102092.96
2018-05-10T21:41:47.335Z,102096.72
2018-05-10T21:44:15.425Z,102099.36
2018-05-10T21:46:43.550Z,102107.59
2018-05-10T21:49:23.439Z,102098.67
2018-05-10T21:51:52.356Z,102100.52
2018-05-10T21:54:21.340Z,102101.02
2018-05-10T21:56:49.431Z,102099.07
2018-05-10T21:59:23.123Z,102102.89
2018-05-10T22:01:51.239Z,102098.53
2018-05-10T22:04:19.323Z,102096.95
2018-05-10T22:06:47.491Z,102092.66
2018-05-10T22:09:15.821Z,102104.55
2018-05-10T22:11:43.915Z,102098.83
2018-05-10T22:14:12.015Z,102094.70
2018-05-10T22:16:46.428Z,102097.77
2018-05-10T22:19:14.555Z,102095.52
2018-05-10T22:21:42.734Z,102092.09
2018-05-10T22:24:10.839Z,102098.84
2018-05-10T22:26:38.995Z,102089.75
2018-05-10T22:29:07.116Z,102090.05
2018-05-10T22:31:35.229Z,102097.67
2018-05-10T22:34:03.307Z,102090.52
2018-05-10T22:36:31.395Z,102090.16
2018-05-10T22:38:59.975Z,102089.14
2018-05-10T22:41:28.062Z,102097.38
2018-05-10T22:43:56.171Z,102101.80
2018-05-10T22:46:24.267Z,102101.66
2018-05-10T22:48:52.362Z,102107.52
2018-05-10T22:51:21.383Z,102101.80
2018-05-10T22:53:49.480Z,102102.34
2018-05-10T22:56:24.201Z,102094.63
2018-05-10T22:58:57.839Z,102097.41
2018-05-10T23:01:25.967Z,102095.55
2018-05-10T23:16:54.084Z,102099.27
2018-05-10T23:19:22.191Z,102100.00
2018-05-10T23:21:50.278Z,102097.80
2018-05-10T23:24:18.393Z,102106.34
2018-05-10T23:26:46.543Z,102104.47
2018-05-10T23:29:15.185Z,102105.92
2018-05-10T23:31:48.779Z,102102.02
2018-05-10T23:34:16.867Z,102103.23
2018-05-10T23:36:44.994Z,102100.73
2018-05-10T23:39:13.139Z,102099.67
2018-05-10T23:41:41.207Z,102098.63
2018-05-10T23:44:09.292Z,102103.85
2018-05-10T23:46:37.512Z,102101.73
2018-05-10T23:49:05.627Z,102105.86
2018-05-10T23:51:33.779Z,102109.20
2018-05-10T23:54:01.875Z,102102.92
2018-05-10T23:56:30.760Z,102103.25
2018-05-10T23:58:58.856Z,102106.01
